createdAt,value
2019-05-11T00:00:05.501Z,99340.00
2019-05-11T00:02:34.569Z,99337.00
2019-05-11T00:05:05.357Z,99326.00
2019-05-11T00:07:34.717Z,99312.00
2019-05-11T00:10:05.958Z,99310.00
2019-05-11T00:12:35.391Z,99318.00
2019-05-11T00:15:05.335Z,99315.00
2019-05-11T00:17:34.422Z,99300.00
2019-05-11T00:20:04.577Z,99294.00
2019-05-11T00:22:33.690Z,99291.00
2019-05-11T00:25:02.842Z,99287.00
2019-05-11T00:27:31.942Z,99289.00
2019-05-11T00:30:01.328Z,99284.00
2019-05-11T00:32:30.737Z,99285.00
2019-05-11T00:35:00.558Z,99286.00
2019-05-11T00:37:29.669Z,99287.00
2019-05-11T00:40:13.338Z,99284.00
2019-05-11T00:42:29.745Z,99279.00
2019-05-11T00:44:59.073Z,99284.00
2019-05-11T00:47:28.206Z,99288.00
2019-05-11T00:49:57.586Z,99290.00
2019-05-11T00:52:26.914Z,99296.00
2019-05-11T00:54:56.013Z,99293.00
2019-05-11T00:57:25.375Z,99287.00
2019-05-11T00:59:54.478Z,99289.00
2019-05-11T01:02:23.809Z,99286.00
2019-05-11T01:04:53.158Z,99289.00
2019-05-11T01:07:22.354Z,99290.00
2019-05-11T01:09:51.406Z,99290.00
2019-05-11T01:12:20.539Z,99278.00
2019-05-11T01:14:49.680Z,99261.00
2019-05-11T01:17:18.817Z,99268.00
2019-05-11T01:19:47.889Z,99277.00
2019-05-11T01:22:17.027Z,99275.00
2019-05-11T01:24:46.118Z,99269.00
2019-05-11T01:27:15.476Z,99269.00
2019-05-11T01:29:44.620Z,99259.00
2019-05-11T01:32:14.074Z,99250.00
2019-05-11T01:34:43.140Z,99243.00
2019-05-11T01:37:12.245Z,99249.00
2019-05-11T01:39:41.918Z,99254.00
2019-05-11T01:42:11.045Z,99257.00
2019-05-11T01:44:40.407Z,99257.00
2019-05-11T01:47:10.026Z,99246.00
2019-05-11T01:49:39.386Z,99241.00
2019-05-11T01:52:08.481Z,99243.00
2019-05-11T01:54:37.925Z,99234.00
2019-05-11T01:57:07.300Z,99230.00
2019-05-11T01:59:36.652Z,99218.00
2019-05-11T02:02:05.788Z,99220.00
2019-05-11T02:04:35.125Z,99219.00
2019-05-11T02:07:04.525Z,99224.00
2019-05-11T02:09:33.860Z,99227.00
2019-05-11T02:12:03.198Z,99234.00
2019-05-11T02:14:32.323Z,99232.00
2019-05-11T02:17:01.431Z,99230.00
2019-05-11T02:19:30.513Z,99228.00
2019-05-11T02:21:59.601Z,99223.00
2019-05-11T02:24:28.941Z,99222.00
2019-05-11T02:26:58.617Z,99223.00
2019-05-11T02:29:27.667Z,99224.00
2019-05-11T02:31:56.796Z,99218.00
2019-05-11T02:34:25.865Z,99219.00
2019-05-11T02:36:55.217Z,99212.00
2019-05-11T02:39:24.594Z,99211.00
2019-05-11T02:41:53.952Z,99209.00
2019-05-11T02:44:23.030Z,99209.00
2019-05-11T02:46:52.423Z,99210.00
2019-05-11T02:49:21.819Z,99204.00
2019-05-11T02:51:51.049Z,99198.00
2019-05-11T02:54:20.189Z,99196.00
2019-05-11T02:56:49.294Z,99195.00
2019-05-11T02:59:18.707Z,99203.00
2019-05-11T03:01:47.853Z,99199.00
2019-05-11T03:04:17.239Z,99203.00
2019-05-11T03:06:46.344Z,99187.00
2019-05-11T03:09:15.690Z,99198.00
2019-05-11T03:11:54.916Z,99198.00
2019-05-11T03:14:16.109Z,99205.00
2019-05-11T03:16:45.203Z,99201.00
2019-05-11T03:19:14.309Z,99206.00
2019-05-11T03:21:43.698Z,99206.00
2019-05-11T03:24:12.793Z,99206.00
2019-05-11T03:26:41.907Z,99207.00
2019-05-11T03:29:11.046Z,99203.00
2019-05-11T03:31:40.139Z,99194.00
2019-05-11T03:34:09.245Z,99199.00
2019-05-11T03:36:38.354Z,99203.00
2019-05-11T03:39:07.469Z,99197.00
2019-05-11T03:41:36.588Z,99198.00
2019-05-11T03:44:05.682Z,99194.00
2019-05-11T03:46:34.814Z,99191.00
2019-05-11T03:49:04.187Z,99197.00
2019-05-11T03:51:33.306Z,99197.00
2019-05-11T03:54:02.719Z,99192.00
2019-05-11T03:56:31.831Z,99187.00
2019-05-11T03:59:00.961Z,99184.00
2019-05-11T04:01:30.044Z,99176.00
2019-05-11T04:03:59.175Z,99184.00
2019-05-11T04:06:28.267Z,99177.00
2019-05-11T04:08:57.405Z,99174.00
2019-05-11T04:11:27.120Z,99176.00
2019-05-11T04:13:56.244Z,99176.00
2019-05-11T04:16:25.355Z,99178.00
2019-05-11T04:18:54.482Z,99188.00
2019-05-11T04:21:23.557Z,99185.00
2019-05-11T04:23:52.712Z,99184.00
2019-05-11T04:26:22.066Z,99183.00
2019-05-11T04:28:51.162Z,99172.00
2019-05-11T04:31:20.498Z,99170.00
2019-05-11T04:33:49.590Z,99171.00
2019-05-11T04:36:18.950Z,99172.00
2019-05-11T04:38:48.805Z,99165.00
2019-05-11T04:41:17.877Z,99163.00
2019-05-11T04:43:47.304Z,99177.00
2019-05-11T04:46:16.415Z,99179.00
2019-05-11T04:48:45.516Z,99187.00
2019-05-11T04:51:14.700Z,99190.00
2019-05-11T04:53:43.753Z,99189.00
2019-05-11T04:56:13.170Z,99181.00
2019-05-11T04:58:42.513Z,99177.00
2019-05-11T05:01:11.867Z,99176.00
2019-05-11T05:03:41.562Z,99173.00
2019-05-11T05:06:22.193Z,99175.00
2019-05-11T05:08:42.873Z,99168.00
2019-05-11T05:11:11.993Z,99170.00
2019-05-11T05:13:41.356Z,99170.00
2019-05-11T05:16:10.471Z,99174.00
2019-05-11T05:18:39.908Z,99175.00
2019-05-11T05:21:09.276Z,99166.00
2019-05-11T05:23:38.352Z,99161.00
2019-05-11T05:26:07.446Z,99169.00
2019-05-11T05:28:36.534Z,99165.00
2019-05-11T05:31:05.905Z,99170.00
2019-05-11T05:33:35.013Z,99163.00
2019-05-11T05:36:04.194Z,99170.00
2019-05-11T05:38:33.346Z,99167.00
2019-05-11T05:41:02.663Z,99160.00
2019-05-11T05:43:31.900Z,99156.00
2019-05-11T05:46:01.004Z,99162.00
2019-05-11T05:48:30.348Z,99162.00
2019-05-11T05:50:59.445Z,99163.00
2019-05-11T05:53:28.566Z,99162.00
2019-05-11T05:55:57.701Z,99160.00
2019-05-11T05:58:26.785Z,99164.00
2019-05-11T06:00:55.965Z,99157.00
2019-05-11T06:03:25.335Z,99155.00
2019-05-11T06:05:54.476Z,99157.00
2019-05-11T06:08:23.854Z,99153.00
2019-05-11T06:10:53.237Z,99156.00
2019-05-11T06:13:22.319Z,99170.00
2019-05-11T06:15:51.429Z,99175.00
2019-05-11T06:18:20.851Z,99170.00
2019-05-11T06:20:49.977Z,99174.00
2019-05-11T06:23:19.181Z,99162.00
2019-05-11T06:25:48.395Z,99161.00
2019-05-11T06:28:17.542Z,99171.00
2019-05-11T06:30:46.646Z,99166.00
2019-05-11T06:33:15.795Z,99161.00
2019-05-11T06:35:45.434Z,99158.00
2019-05-11T06:38:14.562Z,99158.00
2019-05-11T06:40:43.732Z,99156.00
2019-05-11T06:43:12.897Z,99156.00
2019-05-11T06:45:41.980Z,99164.00
2019-05-11T06:48:11.106Z,99159.00
2019-05-11T06:50:40.217Z,99162.00
2019-05-11T06:53:09.353Z,99155.00
2019-05-11T06:55:38.641Z,99144.00
2019-05-11T06:58:07.720Z,99147.00
2019-05-11T07:00:37.113Z,99138.00
2019-05-11T07:03:06.468Z,99130.00
2019-05-11T07:05:35.821Z,99136.00
2019-05-11T07:08:04.934Z,99145.00
2019-05-11T07:10:34.042Z,99143.00
2019-05-11T07:13:03.170Z,99143.00
2019-05-11T07:15:32.548Z,99140.00
2019-05-11T07:18:02.154Z,99143.00
2019-05-11T07:20:31.527Z,99140.00
2019-05-11T07:23:00.895Z,99139.00
2019-05-11T07:25:29.970Z,99133.00
2019-05-11T07:27:59.099Z,99144.00
2019-05-11T07:30:31.484Z,99143.00
2019-05-11T07:33:01.095Z,99137.00
2019-05-11T07:35:30.569Z,99140.00
2019-05-11T07:37:59.912Z,99134.00
2019-05-11T07:40:29.034Z,99141.00
2019-05-11T07:42:58.959Z,99131.00
2019-05-11T07:45:28.517Z,99125.00
2019-05-11T07:47:58.979Z,99121.00
2019-05-11T07:50:28.594Z,99124.00
2019-05-11T07:52:58.839Z,99124.00
2019-05-11T07:55:28.386Z,99115.00
2019-05-11T07:57:58.647Z,99117.00
2019-05-11T08:00:28.140Z,99123.00
2019-05-11T08:02:58.490Z,99119.00
2019-05-11T08:05:28.348Z,99130.00
2019-05-11T08:07:59.569Z,99118.00
2019-05-11T08:10:28.622Z,99114.00
2019-05-11T08:12:58.834Z,99123.00
2019-05-11T08:15:28.516Z,99117.00
2019-05-11T08:17:58.001Z,99116.00
2019-05-11T08:20:28.053Z,99112.00
2019-05-11T08:22:58.701Z,99120.00
2019-05-11T08:25:28.690Z,99113.00
2019-05-11T08:27:58.947Z,99124.00
2019-05-11T08:30:28.610Z,99129.00
2019-05-11T08:32:58.357Z,99116.00
2019-05-11T08:35:31.072Z,99115.00
2019-05-11T08:37:58.657Z,99126.00
2019-05-11T08:40:28.871Z,99125.00
2019-05-11T08:42:58.369Z,99130.00
2019-05-11T08:45:28.155Z,99126.00
2019-05-11T08:47:58.115Z,99129.00
2019-05-11T08:50:28.078Z,99131.00
2019-05-11T08:52:58.223Z,99125.00
2019-05-11T08:55:29.003Z,99129.00
2019-05-11T08:57:58.663Z,99133.00
2019-05-11T09:00:28.496Z,99132.00
2019-05-11T09:02:58.366Z,99130.00
2019-05-11T09:05:28.155Z,99134.00
2019-05-11T09:07:57.965Z,99137.00
2019-05-11T09:10:28.235Z,99134.00
2019-05-11T09:12:59.093Z,99138.00
2019-05-11T09:15:36.298Z,99124.00
2019-05-11T09:17:59.110Z,99135.00
2019-05-11T09:20:28.678Z,99127.00
2019-05-11T09:22:58.985Z,99125.00
2019-05-11T09:25:28.378Z,99136.00
2019-05-11T09:27:58.783Z,99127.00
2019-05-11T09:30:28.934Z,99121.00
2019-05-11T09:32:58.309Z,99131.00
2019-05-11T09:35:29.174Z,99132.00
2019-05-11T09:37:58.927Z,99134.00
2019-05-11T09:40:28.526Z,99135.00
2019-05-11T09:42:58.548Z,99138.00
2019-05-11T09:45:28.070Z,99142.00
2019-05-11T09:47:58.226Z,99151.00
2019-05-11T09:50:28.347Z,99145.00
2019-05-11T09:52:58.214Z,99153.00
2019-05-11T09:55:28.282Z,99153.00
2019-05-11T09:57:58.096Z,99150.00
2019-05-11T10:00:28.290Z,99151.00
2019-05-11T10:02:57.812Z,99150.00
2019-05-11T10:05:28.650Z,99163.00
2019-05-11T10:07:58.955Z,99161.00
2019-05-11T10:10:29.058Z,99149.00
2019-05-11T10:12:59.160Z,99147.00
2019-05-11T10:15:28.689Z,99149.00
2019-05-11T10:17:58.885Z,99147.00
2019-05-11T10:20:28.763Z,99140.00
2019-05-11T10:22:58.198Z,99139.00
2019-05-11T10:25:28.728Z,99128.00
2019-05-11T10:27:58.445Z,99114.00
2019-05-11T10:30:28.229Z,99122.00
2019-05-11T10:32:57.890Z,99132.00
2019-05-11T10:35:28.860Z,99144.00
2019-05-11T10:37:58.398Z,99153.00
2019-05-11T10:40:28.282Z,99157.00
2019-05-11T10:42:58.965Z,99150.00
2019-05-11T10:45:28.693Z,99140.00
2019-05-11T10:48:00.959Z,99142.00
2019-05-11T10:50:29.145Z,99146.00
2019-05-11T10:52:59.017Z,99139.00
2019-05-11T10:55:28.263Z,99140.00
2019-05-11T10:57:58.075Z,99141.00
2019-05-11T11:00:28.284Z,99139.00
2019-05-11T11:02:58.386Z,99137.00
2019-05-11T11:05:28.073Z,99125.00
2019-05-11T11:07:58.836Z,99132.00
2019-05-11T11:10:28.735Z,99137.00
2019-05-11T11:12:58.265Z,99134.00
2019-05-11T11:15:28.842Z,99128.00
2019-05-11T11:17:58.395Z,99126.00
2019-05-11T11:20:28.188Z,99130.00
2019-05-11T11:22:58.295Z,99121.00
2019-05-11T11:25:28.394Z,99130.00
2019-05-11T11:27:58.116Z,99117.00
2019-05-11T11:30:28.544Z,99109.00
2019-05-11T11:32:58.772Z,99126.00
2019-05-11T11:35:28.294Z,99133.00
2019-05-11T11:37:58.473Z,99112.00
2019-05-11T11:40:28.326Z,99110.00
2019-05-11T11:42:58.220Z,99107.00
2019-05-11T11:45:28.791Z,99101.00
2019-05-11T11:47:58.199Z,99098.00
2019-05-11T11:50:28.316Z,99098.00
2019-05-11T11:52:58.031Z,99101.00
2019-05-11T11:55:29.010Z,99106.00
2019-05-11T11:57:58.925Z,99101.00
2019-05-11T12:00:28.840Z,99100.00
2019-05-11T12:02:58.437Z,99105.00
2019-05-11T12:05:28.378Z,99099.00
2019-05-11T12:07:58.136Z,99093.00
2019-05-11T12:10:28.748Z,99084.00
2019-05-11T12:12:58.285Z,99083.00
2019-05-11T12:15:28.408Z,99094.00
2019-05-11T12:17:58.765Z,99102.00
2019-05-11T12:20:28.713Z,99102.00
2019-05-11T12:22:58.314Z,99102.00
2019-05-11T12:25:27.955Z,99109.00
2019-05-11T12:27:57.783Z,99116.00
2019-05-11T12:30:28.488Z,99115.00
2019-05-11T12:32:57.840Z,99109.00
2019-05-11T12:35:28.433Z,99113.00
2019-05-11T12:37:58.710Z,99111.00
2019-05-11T12:40:28.473Z,99118.00
2019-05-11T12:42:59.058Z,99119.00
2019-05-11T12:45:29.620Z,99119.00
2019-05-11T12:47:58.815Z,99116.00
2019-05-11T12:50:28.567Z,99129.00
2019-05-11T12:52:58.856Z,99123.00
2019-05-11T12:55:28.625Z,99127.00
2019-05-11T12:57:58.207Z,99124.00
2019-05-11T13:00:31.258Z,99133.00
2019-05-11T13:02:58.929Z,99133.00
2019-05-11T13:05:28.650Z,99147.00
2019-05-11T13:07:58.658Z,99141.00
2019-05-11T13:10:28.439Z,99151.00
2019-05-11T13:12:58.246Z,99155.00
2019-05-11T13:15:28.202Z,99153.00
2019-05-11T13:17:58.134Z,99145.00
2019-05-11T13:20:28.545Z,99148.00
2019-05-11T13:22:58.707Z,99145.00
2019-05-11T13:25:28.377Z,99153.00
2019-05-11T13:27:58.069Z,99159.00
2019-05-11T13:30:27.948Z,99154.00
2019-05-11T13:32:58.003Z,99155.00
2019-05-11T13:35:28.466Z,99122.00
2019-05-11T13:37:58.490Z,99157.00
2019-05-11T13:40:28.020Z,99149.00
2019-05-11T13:42:58.108Z,99149.00
2019-05-11T13:45:28.234Z,99141.00
2019-05-11T13:47:59.313Z,99140.00
2019-05-11T13:50:29.681Z,99146.00
2019-05-11T13:52:58.896Z,99141.00
2019-05-11T13:55:28.434Z,99148.00
2019-05-11T13:57:58.047Z,99164.00
2019-05-11T14:00:28.870Z,99186.00
2019-05-11T14:03:00.254Z,99186.00
2019-05-11T14:05:29.668Z,99184.00
2019-05-11T14:07:59.028Z,99179.00
2019-05-11T14:10:28.381Z,99177.00
2019-05-11T14:12:58.282Z,99160.00
2019-05-11T14:15:28.162Z,99139.00
2019-05-11T14:18:05.714Z,99144.00
2019-05-11T14:20:28.992Z,99161.00
2019-05-11T14:22:58.579Z,99181.00
2019-05-11T14:25:28.118Z,99197.00
2019-05-11T14:27:59.366Z,99195.00
2019-05-11T14:30:28.274Z,99201.00
2019-05-11T14:32:58.078Z,99201.00
2019-05-11T14:35:27.977Z,99190.00
2019-05-11T14:37:58.829Z,99195.00
2019-05-11T14:40:28.284Z,99201.00
2019-05-11T14:42:58.074Z,99208.00
2019-05-11T14:45:28.812Z,99206.00
2019-05-11T14:47:58.334Z,99220.00
2019-05-11T14:50:28.144Z,99221.00
2019-05-11T14:52:58.101Z,99213.00
2019-05-11T14:55:28.934Z,99212.00
2019-05-11T14:57:58.205Z,99212.00
2019-05-11T15:00:29.050Z,99217.00
2019-05-11T15:02:58.550Z,99207.00
2019-05-11T15:05:28.434Z,99213.00
2019-05-11T15:07:58.178Z,99219.00
2019-05-11T15:10:27.999Z,99225.00
2019-05-11T15:12:59.092Z,99237.00
2019-05-11T15:15:28.477Z,99242.00
2019-05-11T15:17:58.260Z,99243.00
2019-05-11T15:20:28.495Z,99242.00
2019-05-11T15:22:58.202Z,99257.00
2019-05-11T15:25:28.892Z,99248.00
2019-05-11T15:27:58.568Z,99249.00
2019-05-11T15:30:28.742Z,99264.00
2019-05-11T15:32:58.574Z,99271.00
2019-05-11T15:35:28.611Z,99276.00
2019-05-11T15:37:58.325Z,99285.00
2019-05-11T15:40:28.061Z,99278.00
2019-05-11T15:42:58.539Z,99286.00
2019-05-11T15:45:27.936Z,99291.00
2019-05-11T15:47:58.974Z,99300.00
2019-05-11T15:50:29.123Z,99305.00
2019-05-11T15:52:58.593Z,99309.00
2019-05-11T15:55:27.989Z,99299.00
2019-05-11T15:57:57.133Z,99315.00
2019-05-11T16:00:26.412Z,99316.00
2019-05-11T16:02:57.824Z,99328.00
2019-05-11T16:05:28.553Z,99326.00
2019-05-11T16:07:58.830Z,99311.00
2019-05-11T16:10:28.493Z,99294.00
2019-05-11T16:12:58.665Z,99308.00
2019-05-11T16:15:28.086Z,99318.00
2019-05-11T16:17:57.821Z,99322.00
2019-05-11T16:20:28.554Z,99328.00
2019-05-11T16:22:58.050Z,99334.00
2019-05-11T16:25:28.066Z,99359.00
2019-05-11T16:27:57.500Z,99355.00
2019-05-11T16:30:28.825Z,99362.00
2019-05-11T16:32:58.074Z,99354.00
2019-05-11T16:35:28.107Z,99355.00
2019-05-11T16:37:59.146Z,99353.00
2019-05-11T16:40:29.579Z,99362.00
2019-05-11T16:42:59.028Z,99359.00
2019-05-11T16:45:28.334Z,99370.00
2019-05-11T16:47:58.827Z,99375.00
2019-05-11T16:50:28.361Z,99386.00
2019-05-11T16:52:58.565Z,99386.00
2019-05-11T16:55:27.722Z,99393.00
2019-05-11T16:57:58.821Z,99407.00
2019-05-11T17:00:27.534Z,99402.00
2019-05-11T17:02:57.747Z,99392.00
2019-05-11T17:05:33.181Z,99404.00
2019-05-11T17:07:58.821Z,99416.00
2019-05-11T17:10:28.505Z,99426.00
2019-05-11T17:12:58.181Z,99432.00
2019-05-11T17:15:28.881Z,99436.00
2019-05-11T17:17:58.746Z,99439.00
2019-05-11T17:20:28.227Z,99443.00
2019-05-11T17:22:57.567Z,99453.00
2019-05-11T17:25:28.730Z,99444.00
2019-05-11T17:27:58.790Z,99447.00
2019-05-11T17:30:28.211Z,99454.00
2019-05-11T17:32:59.357Z,99450.00
2019-05-11T17:35:28.596Z,99462.00
2019-05-11T17:37:57.707Z,99467.00
2019-05-11T17:40:28.483Z,99473.00
2019-05-11T17:42:58.605Z,99486.00
2019-05-11T17:45:27.999Z,99485.00
2019-05-11T17:47:58.280Z,99487.00
2019-05-11T17:50:28.161Z,99505.00
2019-05-11T17:52:57.416Z,99500.00
2019-05-11T17:55:28.643Z,99505.00
2019-05-11T17:57:58.267Z,99506.00
2019-05-11T18:00:28.333Z,99500.00
2019-05-11T18:02:58.317Z,99514.00
2019-05-11T18:05:27.779Z,99519.00
2019-05-11T18:07:58.038Z,99512.00
2019-05-11T18:10:28.282Z,99522.00
2019-05-11T18:12:57.921Z,99541.00
2019-05-11T18:15:27.318Z,99551.00
2019-05-11T18:17:58.750Z,99555.00
2019-05-11T18:20:28.663Z,99565.00
2019-05-11T18:22:58.514Z,99570.00
2019-05-11T18:25:28.726Z,99575.00
2019-05-11T18:27:58.232Z,99574.00
2019-05-11T18:30:29.320Z,99591.00
2019-05-11T18:32:59.403Z,99610.00
2019-05-11T18:35:28.975Z,99608.00
2019-05-11T18:37:58.099Z,99609.00
2019-05-11T18:40:28.677Z,99613.00
2019-05-11T18:42:57.984Z,99615.00
2019-05-11T18:45:28.780Z,99604.00
2019-05-11T18:47:58.077Z,99613.00
2019-05-11T18:50:30.796Z,99624.00
2019-05-11T18:52:58.289Z,99631.00
2019-05-11T18:55:28.056Z,99643.00
2019-05-11T18:57:58.075Z,99639.00
2019-05-11T19:00:27.708Z,99649.00
2019-05-11T19:02:58.138Z,99650.00
2019-05-11T19:05:29.171Z,99654.00
2019-05-11T19:07:58.504Z,99660.00
2019-05-11T19:10:27.930Z,99661.00
2019-05-11T19:12:58.893Z,99670.00
2019-05-11T19:15:28.396Z,99676.00
2019-05-11T19:17:58.122Z,99676.00
2019-05-11T19:20:28.309Z,99682.00
2019-05-11T19:22:59.020Z,99675.00
2019-05-11T19:25:28.476Z,99696.00
2019-05-11T19:27:59.001Z,99682.00
2019-05-11T19:30:28.373Z,99686.00
2019-05-11T19:32:58.987Z,99691.00
2019-05-11T19:35:28.800Z,99686.00
2019-05-11T19:37:57.974Z,99682.00
2019-05-11T19:40:27.307Z,99687.00
2019-05-11T19:42:58.986Z,99697.00
2019-05-11T19:45:29.353Z,99701.00
2019-05-11T19:47:59.014Z,99712.00
2019-05-11T19:50:28.337Z,99710.00
2019-05-11T19:52:57.955Z,99728.00
2019-05-11T19:55:28.565Z,99746.00
2019-05-11T19:57:57.841Z,99746.00
2019-05-11T20:00:27.193Z,99750.00
2019-05-11T20:02:58.361Z,99759.00
2019-05-11T20:05:28.765Z,99755.00
2019-05-11T20:07:58.743Z,99760.00
2019-05-11T20:10:28.032Z,99770.00
2019-05-11T20:12:58.756Z,99781.00
2019-05-11T20:15:28.091Z,99782.00
2019-05-11T20:17:58.699Z,99779.00
2019-05-11T20:20:28.544Z,99789.00
2019-05-11T20:22:58.580Z,99790.00
2019-05-11T20:25:28.780Z,99810.00
2019-05-11T20:27:58.615Z,99808.00
2019-05-11T20:30:27.748Z,99822.00
2019-05-11T20:32:57.153Z,99835.00
2019-05-11T20:35:28.021Z,99846.00
2019-05-11T20:37:58.119Z,99849.00
2019-05-11T20:40:28.529Z,99862.00
2019-05-11T20:42:58.703Z,99868.00
2019-05-11T20:45:28.691Z,99865.00
2019-05-11T20:47:57.892Z,99875.00
2019-05-11T20:50:26.993Z,99872.00
2019-05-11T20:52:58.087Z,99870.00
2019-05-11T20:55:28.424Z,99882.00
2019-05-11T20:57:58.474Z,99879.00
2019-05-11T21:00:28.207Z,99881.00
2019-05-11T21:02:58.841Z,99885.00
2019-05-11T21:05:28.460Z,99887.00
2019-05-11T21:07:58.105Z,99896.00
2019-05-11T21:10:28.090Z,99890.00
2019-05-11T21:12:57.699Z,99886.00
2019-05-11T21:15:28.130Z,99888.00
2019-05-11T21:17:58.613Z,99897.00
2019-05-11T21:20:28.789Z,99904.00
2019-05-11T21:22:58.422Z,99901.00
2019-05-11T21:25:28.719Z,99904.00
2019-05-11T21:27:58.093Z,99906.00
2019-05-11T21:30:27.204Z,99912.00
2019-05-11T21:32:58.206Z,99915.00
2019-05-11T21:35:28.101Z,99919.00
2019-05-11T21:37:58.120Z,99925.00
2019-05-11T21:40:29.060Z,99930.00
2019-05-11T21:42:58.594Z,99938.00
2019-05-11T21:45:28.462Z,99940.00
2019-05-11T21:47:57.954Z,99934.00
2019-05-11T21:50:27.922Z,99934.00
2019-05-11T21:52:58.999Z,99949.00
2019-05-11T21:55:29.239Z,99950.00
2019-05-11T21:57:58.549Z,99958.00
2019-05-11T22:00:29.843Z,99958.00
2019-05-11T22:02:59.633Z,99953.00
2019-05-11T22:05:29.122Z,99959.00
2019-05-11T22:07:58.460Z,99962.00
2019-05-11T22:10:28.451Z,99971.00
2019-05-11T22:12:57.876Z,99973.00
2019-05-11T22:15:28.498Z,99986.00
2019-05-11T22:17:58.514Z,99991.00
2019-05-11T22:20:28.773Z,99998.00
2019-05-11T22:22:58.342Z,100009.00
2019-05-11T22:25:28.706Z,100005.00
2019-05-11T22:27:57.933Z,100010.00
2019-05-11T22:30:27.794Z,100010.00
2019-05-11T22:32:58.372Z,100009.00
2019-05-11T22:35:28.712Z,100006.00
2019-05-11T22:37:57.932Z,100015.00
2019-05-11T22:40:28.112Z,100002.00
2019-05-11T22:43:00.837Z,100007.00
2019-05-11T22:45:28.423Z,100005.00
2019-05-11T22:47:58.509Z,100012.00
2019-05-11T22:50:29.082Z,100013.00
2019-05-11T22:52:58.481Z,100009.00
2019-05-11T22:55:27.842Z,100024.00
2019-05-11T22:57:57.906Z,100031.00
2019-05-11T23:00:39.970Z,100029.00
2019-05-11T23:03:11.014Z,100041.00
2019-05-11T23:05:40.931Z,100046.00
2019-05-11T23:08:10.420Z,100044.00
2019-05-11T23:10:39.512Z,100045.00
2019-05-11T23:13:11.206Z,100054.00
2019-05-11T23:15:40.419Z,100056.00
2019-05-11T23:18:09.945Z,100070.00
2019-05-11T23:20:39.317Z,100060.00
2019-05-11T23:23:08.999Z,100070.00
2019-05-11T23:25:38.133Z,100066.00
2019-05-11T23:28:07.206Z,100078.00
2019-05-11T23:30:38.987Z,100069.00
2019-05-11T23:33:08.050Z,100074.00
2019-05-11T23:35:38.256Z,100078.00
2019-05-11T23:38:07.873Z,100079.00
2019-05-11T23:40:37.986Z,100081.00
2019-05-11T23:43:08.742Z,100083.00
2019-05-11T23:45:38.528Z,100083.00
2019-05-11T23:48:07.896Z,100089.00
2019-05-11T23:50:38.634Z,100098.00
2019-05-11T23:53:10.369Z,100099.00
2019-05-11T23:55:38.968Z,100105.00
2019-05-11T23:58:08.403Z,100099.00
